Time;durP1;ratioP1;P1;durP2;ratioP2;P2;SDS_P1;SDS_P2;PMS_P1;PMS_P2;Temp;Humidity;BMP_temperature;BMP_pressure;BME280_temperature;BME280_humidity;BME280_pressure;Samples;Min_cycle;Max_cycle;Signal;HPM_P1;HPM_P2
2021/03/02 00:01:47;;;;;;;21.25;8.05;;;2.40;99.90;;;;;;4988420;28;20043;-81
2021/03/02 00:04:12;;;;;;;22.30;8.45;;;2.30;99.90;;;;;;4971388;28;20030;-82
2021/03/02 00:06:38;;;;;;;20.15;8.32;;;2.30;99.90;;;;;;4989638;28;20054;-81
2021/03/02 00:09:06;;;;;;;19.67;8.50;;;2.30;99.90;;;;;;4980847;28;20043;-82
2021/03/02 00:11:32;;;;;;;22.17;8.13;;;2.30;99.90;;;;;;4949253;29;20043;-81
2021/03/02 00:13:58;;;;;;;18.92;7.72;;;2.20;99.90;;;;;;4960134;28;20031;-82
2021/03/02 00:16:27;;;;;;;22.90;10.02;;;2.20;99.90;;;;;;4960031;28;20054;-82
2021/03/02 00:19:11;;;;;;;23.33;9.75;;;2.30;99.90;;;;;;4957083;28;20043;-81
2021/03/02 00:21:41;;;;;;;21.42;8.93;;;2.20;99.90;;;;;;4978544;28;20066;-81
2021/03/02 00:24:11;;;;;;;19.38;7.70;;;2.20;99.90;;;;;;4988053;28;20039;-81
2021/03/02 00:26:43;;;;;;;24.67;8.23;;;2.20;99.90;;;;;;4982666;28;20044;-82
2021/03/02 00:29:10;;;;;;;20.88;7.93;;;2.20;99.90;;;;;;4987909;28;20414;-81
2021/03/02 00:31:37;;;;;;;20.55;8.73;;;2.20;99.90;;;;;;4978977;28;20514;-82
2021/03/02 00:34:02;;;;;;;21.02;8.30;;;2.20;99.90;;;;;;4982885;28;20564;-81
2021/03/02 00:36:28;;;;;;;21.20;8.25;;;2.20;99.90;;;;;;4984758;28;20081;-82
2021/03/02 00:38:54;;;;;;;18.63;7.53;;;2.10;99.90;;;;;;4982396;28;20051;-81
2021/03/02 00:41:19;;;;;;;19.65;8.02;;;2.10;99.90;;;;;;4962510;28;20806;-82
2021/03/02 00:43:45;;;;;;;19.98;7.70;;;2.10;99.90;;;;;;4985044;28;20035;-81
2021/03/02 00:46:11;;;;;;;20.02;7.95;;;2.10;99.90;;;;;;4972043;28;20031;-81
2021/03/02 00:48:37;;;;;;;21.88;7.80;;;2.00;99.90;;;;;;4981264;28;20039;-81
2021/03/02 00:51:03;;;;;;;24.83;8.70;;;2.00;99.90;;;;;;4986439;28;20035;-81
2021/03/02 00:53:29;;;;;;;18.60;7.68;;;2.10;99.90;;;;;;4986326;28;20050;-82
2021/03/02 00:55:55;;;;;;;23.20;9.40;;;2.10;99.90;;;;;;4963832;28;20051;-81
2021/03/02 00:58:21;;;;;;;21.00;8.95;;;2.10;99.90;;;;;;4973603;28;20039;-81
2021/03/02 01:00:48;;;;;;;23.08;10.02;;;2.00;99.90;;;;;;4966373;28;20050;-81
2021/03/02 01:03:14;;;;;;;24.10;9.65;;;2.00;99.90;;;;;;4972794;28;20099;-81
2021/03/02 01:06:01;;;;;;;18.00;8.05;;;1.90;99.90;;;;;;4971883;28;20099;-81
2021/03/02 01:08:27;;;;;;;26.13;9.73;;;1.90;99.90;;;;;;4916312;29;20063;-82
2021/03/02 01:10:56;;;;;;;21.45;9.48;;;1.80;99.90;;;;;;4918294;29;20065;-81
2021/03/02 01:13:25;;;;;;;20.75;7.90;;;1.70;99.90;;;;;;4917215;29;20051;-81
2021/03/02 01:15:51;;;;;;;23.30;9.07;;;1.70;99.90;;;;;;4902144;29;20041;-80
2021/03/02 01:18:17;;;;;;;24.98;9.60;;;1.70;99.90;;;;;;4917018;29;20100;-81
2021/03/02 01:20:42;;;;;;;24.20;8.70;;;1.80;99.90;;;;;;4913229;29;20067;-82
2021/03/02 01:23:08;;;;;;;23.02;8.93;;;1.80;99.90;;;;;;4914936;29;20147;-82
2021/03/02 01:25:34;;;;;;;22.70;8.70;;;1.80;99.90;;;;;;4904653;29;20037;-81
2021/03/02 01:27:59;;;;;;;21.65;8.00;;;1.80;99.90;;;;;;4915018;29;20040;-81
2021/03/02 01:30:26;;;;;;;18.90;7.60;;;1.70;99.90;;;;;;4915042;29;20044;-82
2021/03/02 01:32:52;;;;;;;23.65;9.07;;;1.70;99.90;;;;;;4918362;29;20041;-81
2021/03/02 01:35:18;;;;;;;22.05;8.57;;;1.70;99.90;;;;;;4915182;29;20100;-81
2021/03/02 01:37:44;;;;;;;23.73;8.13;;;1.70;99.90;;;;;;4917683;29;20052;-81
2021/03/02 01:40:11;;;;;;;18.75;8.77;;;1.70;99.90;;;;;;4901911;29;20044;-81
2021/03/02 01:42:37;;;;;;;20.67;7.45;;;1.70;99.90;;;;;;4914286;29;20036;-81
2021/03/02 01:45:09;;;;;;;23.50;8.50;;;1.60;99.90;;;;;;4933830;28;20067;-81
2021/03/02 01:47:35;;;;;;;24.00;8.35;;;1.60;99.90;;;;;;4970854;28;20031;-81
2021/03/02 01:50:05;;;;;;;21.25;7.55;;;1.50;99.90;;;;;;4974456;28;20043;-81
2021/03/02 01:52:32;;;;;;;23.98;8.30;;;1.50;99.90;;;;;;4970807;28;20091;-81
2021/03/02 01:54:58;;;;;;;20.52;7.57;;;1.40;99.90;;;;;;4985424;28;20042;-81
2021/03/02 01:57:23;;;;;;;22.58;7.63;;;1.40;99.90;;;;;;4971610;28;20039;-81
2021/03/02 01:59:49;;;;;;;19.77;7.28;;;1.40;99.90;;;;;;4986779;28;20039;-81
2021/03/02 02:02:22;;;;;;;20.98;7.90;;;1.30;99.90;;;;;;4986674;28;20034;-81
2021/03/02 02:04:56;;;;;;;20.23;7.70;;;1.30;99.90;;;;;;4975769;28;20034;-81
2021/03/02 02:07:37;;;;;;;23.98;8.88;;;1.20;99.90;;;;;;4986405;28;20135;-81
2021/03/02 02:10:12;;;;;;;21.55;7.95;;;1.20;99.90;;;;;;4974962;28;20035;-80
2021/03/02 02:12:41;;;;;;;22.55;8.98;;;1.30;99.90;;;;;;4984742;28;20039;-81
2021/03/02 02:15:12;;;;;;;22.85;8.00;;;1.30;99.90;;;;;;4983187;28;20031;-81
2021/03/02 02:17:55;;;;;;;23.77;8.15;;;1.20;99.90;;;;;;4984501;28;20051;-81
2021/03/02 02:20:59;;;;;;;21.08;7.55;;;1.30;99.90;;;;;;4986281;28;20047;-81
2021/03/02 02:23:38;;;;;;;23.35;7.60;;;1.20;99.90;;;;;;4982821;28;20039;-81
2021/03/02 02:26:28;;;;;;;25.75;7.93;;;1.20;99.90;;;;;;4972686;28;20035;-81
2021/03/02 02:28:55;;;;;;;22.70;8.40;;;1.20;99.90;;;;;;4984504;28;20031;-81
2021/03/02 02:31:21;;;;;;;23.98;8.25;;;1.20;99.90;;;;;;4978035;28;20122;-81
2021/03/02 02:33:50;;;;;;;18.02;6.47;;;1.30;99.90;;;;;;4979235;28;20070;-81
2021/03/02 02:36:17;;;;;;;24.98;9.30;;;1.20;99.90;;;;;;4980673;28;20051;-81
2021/03/02 02:38:47;;;;;;;23.05;6.95;;;1.20;99.90;;;;;;4977951;28;20045;-81
2021/03/02 02:41:14;;;;;;;23.30;8.70;;;1.10;99.90;;;;;;4976728;28;20499;-81
2021/03/02 02:43:41;;;;;;;22.08;7.68;;;1.10;99.90;;;;;;4984592;28;20046;-81
2021/03/02 02:46:08;;;;;;;26.13;9.68;;;1.20;99.90;;;;;;4986456;28;20102;-81
2021/03/02 02:48:33;;;;;;;27.85;9.02;;;1.10;99.90;;;;;;4974588;28;20050;-81
2021/03/02 02:51:00;;;;;;;21.80;8.88;;;1.10;99.90;;;;;;4975752;28;20114;-81
2021/03/02 02:53:26;;;;;;;21.73;8.27;;;1.20;99.90;;;;;;4981400;28;20420;-81
2021/03/02 02:56:04;;;;;;;26.85;8.60;;;1.20;99.90;;;;;;4983164;28;20070;-81
2021/03/02 02:58:46;;;;;;;24.98;8.60;;;1.10;99.90;;;;;;4981047;28;20039;-80
2021/03/02 03:01:12;;;;;;;24.05;8.70;;;1.10;99.90;;;;;;4970696;28;20045;-81
2021/03/02 03:03:44;;;;;;;23.58;8.32;;;1.00;99.90;;;;;;4980259;28;20040;-81
2021/03/02 03:06:13;;;;;;;22.75;8.23;;;1.00;99.90;;;;;;4980780;28;20039;-82
2021/03/02 03:08:47;;;;;;;23.98;9.05;;;1.00;99.90;;;;;;4984704;28;20043;-81
2021/03/02 03:11:15;;;;;;;26.77;8.38;;;0.90;99.90;;;;;;4988297;28;20035;-81
2021/03/02 03:13:44;;;;;;;23.73;8.65;;;0.90;99.90;;;;;;4985259;28;20030;-81
2021/03/02 03:16:11;;;;;;;21.33;7.30;;;0.90;99.90;;;;;;4986038;28;20081;-81
2021/03/02 03:18:51;;;;;;;25.58;9.82;;;0.90;99.90;;;;;;4988327;28;20039;-81
2021/03/02 03:21:17;;;;;;;24.90;8.75;;;1.00;99.90;;;;;;4984460;28;20495;-81
2021/03/02 03:23:44;;;;;;;24.17;8.95;;;0.80;99.90;;;;;;4971649;28;20094;-81
2021/03/02 03:26:11;;;;;;;26.40;9.48;;;0.90;99.90;;;;;;4972340;28;20487;-80
2021/03/02 03:28:37;;;;;;;24.25;8.50;;;0.90;99.90;;;;;;4967622;28;20107;-81
2021/03/02 03:31:05;;;;;;;23.45;8.75;;;0.80;99.90;;;;;;4963805;28;20031;-81
2021/03/02 03:33:32;;;;;;;22.27;7.85;;;0.80;99.90;;;;;;4976544;28;20067;-81
2021/03/02 03:35:58;;;;;;;18.40;6.70;;;0.80;99.90;;;;;;4974926;28;20119;-81
2021/03/02 03:38:25;;;;;;;23.42;8.05;;;0.80;99.90;;;;;;4986366;28;20090;-81
2021/03/02 03:40:51;;;;;;;21.20;8.63;;;0.80;99.90;;;;;;4985051;28;20254;-81
2021/03/02 03:43:17;;;;;;;22.45;7.80;;;0.80;99.90;;;;;;4970038;28;20255;-81
2021/03/02 03:45:42;;;;;;;19.35;7.00;;;0.80;99.90;;;;;;4955458;28;20098;-81
2021/03/02 03:48:08;;;;;;;24.13;8.13;;;0.80;99.90;;;;;;4968565;28;20059;-81
2021/03/02 03:50:34;;;;;;;21.90;8.68;;;0.80;99.90;;;;;;4984590;28;20086;-81
2021/03/02 03:53:01;;;;;;;24.20;9.15;;;0.80;99.90;;;;;;4981695;28;20043;-81
2021/03/02 03:55:31;;;;;;;26.20;8.85;;;0.70;99.90;;;;;;4954258;28;20041;-81
2021/03/02 03:57:57;;;;;;;18.63;6.88;;;0.70;99.90;;;;;;4984303;28;20057;-81
2021/03/02 04:00:23;;;;;;;19.50;7.35;;;0.70;99.90;;;;;;4984272;28;20042;-81
2021/03/02 04:02:50;;;;;;;19.45;7.45;;;0.80;99.90;;;;;;4971333;28;20038;-81
2021/03/02 04:05:17;;;;;;;25.45;8.10;;;0.70;99.90;;;;;;4984571;28;20031;-81
2021/03/02 04:07:45;;;;;;;23.70;7.97;;;0.70;99.90;;;;;;4984398;28;20118;-81
2021/03/02 04:10:12;;;;;;;26.10;8.68;;;0.70;99.90;;;;;;4992337;28;21118;-81
2021/03/02 04:12:45;;;;;;;24.33;8.43;;;0.80;99.90;;;;;;4981902;28;20411;-81
2021/03/02 04:15:16;;;;;;;22.85;7.35;;;0.80;99.90;;;;;;4990005;28;20066;-80
2021/03/02 04:17:53;;;;;;;22.25;7.85;;;0.70;99.90;;;;;;4984212;28;20043;-81
2021/03/02 04:20:20;;;;;;;25.38;8.30;;;0.70;99.90;;;;;;4990180;28;20049;-81
2021/03/02 04:22:46;;;;;;;22.63;7.72;;;0.60;99.90;;;;;;4984441;28;20102;-81
2021/03/02 04:25:12;;;;;;;21.48;6.82;;;0.60;99.90;;;;;;4973790;28;20035;-81
2021/03/02 04:27:38;;;;;;;25.42;8.10;;;0.70;99.90;;;;;;4982212;28;20043;-81
2021/03/02 04:30:05;;;;;;;24.50;7.72;;;0.70;99.90;;;;;;4984493;28;20038;-81
2021/03/02 04:32:31;;;;;;;23.50;8.40;;;0.70;99.90;;;;;;4985597;28;20058;-81
2021/03/02 04:34:57;;;;;;;25.63;9.25;;;0.70;99.90;;;;;;4983649;28;20039;-81
2021/03/02 04:37:22;;;;;;;28.13;9.10;;;0.70;99.90;;;;;;4990302;28;20053;-80
2021/03/02 04:39:48;;;;;;;29.02;9.93;;;0.70;99.90;;;;;;4984400;28;20053;-81
2021/03/02 04:42:13;;;;;;;27.17;8.52;;;0.70;99.90;;;;;;4966543;28;20035;-81
2021/03/02 04:44:39;;;;;;;26.63;8.65;;;0.70;99.90;;;;;;4982997;28;20039;-81
2021/03/02 04:47:05;;;;;;;27.83;10.35;;;0.70;99.90;;;;;;4984322;28;20035;-81
2021/03/02 04:49:30;;;;;;;22.85;8.50;;;0.70;99.90;;;;;;4986004;28;20035;-80
2021/03/02 04:51:56;;;;;;;26.65;8.60;;;0.70;99.90;;;;;;4989901;28;20043;-81
2021/03/02 04:54:21;;;;;;;26.38;8.75;;;0.70;99.90;;;;;;4988673;28;20045;-81
2021/03/02 04:56:47;;;;;;;28.23;9.20;;;0.60;99.90;;;;;;4981129;28;20051;-81
2021/03/02 04:59:13;;;;;;;25.77;9.15;;;0.60;99.90;;;;;;4979524;28;20035;-82
2021/03/02 05:01:38;;;;;;;24.88;8.55;;;0.50;99.90;;;;;;4973334;28;20078;-83
2021/03/02 05:04:04;;;;;;;20.30;7.60;;;0.50;99.90;;;;;;4992574;28;20106;-82
2021/03/02 05:06:30;;;;;;;26.48;9.00;;;0.50;99.90;;;;;;4988023;28;20049;-83
2021/03/02 05:08:55;;;;;;;20.40;7.15;;;0.50;99.90;;;;;;4984746;28;20051;-81
2021/03/02 05:11:21;;;;;;;24.75;8.30;;;0.50;99.90;;;;;;4964311;28;20122;-82
2021/03/02 05:13:47;;;;;;;22.38;7.32;;;0.60;99.90;;;;;;4995315;28;20093;-83
2021/03/02 05:16:13;;;;;;;24.35;7.53;;;0.40;99.90;;;;;;4987940;28;20533;-82
2021/03/02 05:18:40;;;;;;;22.05;7.30;;;0.40;99.90;;;;;;4995789;28;20129;-82
2021/03/02 05:21:09;;;;;;;22.45;7.40;;;0.40;99.90;;;;;;4993155;28;20045;-82
2021/03/02 05:23:36;;;;;;;20.25;6.53;;;0.30;99.90;;;;;;4986996;28;20097;-82
2021/03/02 05:26:03;;;;;;;25.20;8.00;;;0.30;99.90;;;;;;4979598;28;20395;-82
2021/03/02 05:28:28;;;;;;;23.48;7.85;;;0.30;99.90;;;;;;4974741;28;20483;-82
2021/03/02 05:30:54;;;;;;;24.33;8.13;;;0.30;99.90;;;;;;4978517;28;20031;-82
2021/03/02 05:33:20;;;;;;;19.42;6.93;;;0.30;99.90;;;;;;4993572;28;20049;-83
2021/03/02 05:35:45;;;;;;;22.92;7.70;;;0.20;99.90;;;;;;4986535;28;20423;-82
2021/03/02 05:38:11;;;;;;;23.38;7.45;;;0.30;99.90;;;;;;4976192;28;20042;-83
2021/03/02 05:40:41;;;;;;;22.85;8.10;;;0.30;99.90;;;;;;4995411;28;20189;-82
2021/03/02 05:43:07;;;;;;;23.02;7.80;;;0.20;99.90;;;;;;4996806;28;20071;-82
2021/03/02 05:45:33;;;;;;;24.58;7.85;;;0.30;99.90;;;;;;4987332;28;20040;-83
2021/03/02 05:48:06;;;;;;;23.50;8.13;;;0.20;99.90;;;;;;4986537;28;20063;-83
2021/03/02 05:50:32;;;;;;;22.67;7.75;;;0.20;99.90;;;;;;4998487;28;20062;-83
2021/03/02 05:53:00;;;;;;;24.45;7.28;;;0.20;99.90;;;;;;4985333;28;20050;-83
2021/03/02 05:55:26;;;;;;;20.30;6.93;;;0.20;99.90;;;;;;4981301;28;20042;-83
2021/03/02 05:57:53;;;;;;;23.65;7.75;;;0.20;99.90;;;;;;4992091;28;20053;-82
2021/03/02 06:00:19;;;;;;;25.40;7.72;;;0.20;99.90;;;;;;4989349;28;20043;-83
2021/03/02 06:02:44;;;;;;;21.02;7.07;;;0.30;99.90;;;;;;4994785;28;20042;-83
2021/03/02 06:05:10;;;;;;;23.05;7.85;;;0.30;99.90;;;;;;4978728;28;20061;-83
2021/03/02 06:07:36;;;;;;;24.38;8.32;;;0.30;99.90;;;;;;4975485;28;20051;-83
2021/03/02 06:10:02;;;;;;;24.60;7.50;;;0.20;99.90;;;;;;4993424;28;20050;-83
2021/03/02 06:12:28;;;;;;;23.40;7.78;;;0.20;99.90;;;;;;4991437;28;20075;-83
2021/03/02 06:15:05;;;;;;;26.52;7.65;;;0.30;99.90;;;;;;4992062;28;20026;-83
2021/03/02 06:17:31;;;;;;;25.63;7.43;;;0.30;99.90;;;;;;4988918;28;20058;-82
2021/03/02 06:19:56;;;;;;;25.30;8.15;;;0.20;99.90;;;;;;4993429;28;20041;-84
2021/03/02 06:22:40;;;;;;;25.73;8.23;;;0.20;99.90;;;;;;4991824;28;20039;-83
2021/03/02 06:25:24;;;;;;;23.90;8.05;;;0.20;99.90;;;;;;4986683;28;20545;-83
2021/03/02 06:27:49;;;;;;;20.85;6.88;;;0.20;99.90;;;;;;4936783;28;20052;-82
2021/03/02 06:30:16;;;;;;;19.88;6.85;;;0.30;99.90;;;;;;4974347;28;20102;-82
2021/03/02 06:32:47;;;;;;;23.13;7.55;;;0.30;99.90;;;;;;4988740;28;20065;-83
2021/03/02 06:35:32;;;;;;;22.60;8.25;;;0.30;99.90;;;;;;4994542;28;20039;-83
2021/03/02 06:37:58;;;;;;;24.65;7.28;;;0.20;99.90;;;;;;4987276;28;20047;-83
2021/03/02 06:40:39;;;;;;;17.50;6.25;;;0.30;99.90;;;;;;4987343;28;20039;-82
2021/03/02 06:43:05;;;;;;;22.02;7.68;;;0.30;99.90;;;;;;4985403;28;20046;-82
2021/03/02 06:45:31;;;;;;;22.05;8.02;;;0.30;99.90;;;;;;4988793;28;20415;-83
2021/03/02 06:48:07;;;;;;;24.77;9.02;;;0.30;99.90;;;;;;4987863;28;20058;-82
2021/03/02 06:50:38;;;;;;;26.17;7.20;;;0.30;99.90;;;;;;4986906;28;20039;-82
2021/03/02 06:53:11;;;;;;;26.02;8.15;;;0.30;99.90;;;;;;4985764;28;20055;-82
2021/03/02 06:55:38;;;;;;;21.48;6.40;;;0.40;99.90;;;;;;4987540;28;20066;-83
2021/03/02 06:58:25;;;;;;;21.42;7.10;;;0.40;99.90;;;;;;4988136;28;20039;-82
2021/03/02 07:00:55;;;;;;;21.25;8.75;;;0.30;99.90;;;;;;4987072;28;20049;-83
2021/03/02 07:03:32;;;;;;;23.80;8.73;;;0.50;99.90;;;;;;4970514;28;20049;-82
2021/03/02 07:06:07;;;;;;;18.60;6.63;;;0.50;99.90;;;;;;4971612;28;20035;-82
2021/03/02 07:08:34;;;;;;;21.33;7.13;;;0.60;99.90;;;;;;4987717;28;20051;-82
2021/03/02 07:11:02;;;;;;;22.42;7.60;;;0.60;99.90;;;;;;4987929;28;20511;-83
2021/03/02 07:13:32;;;;;;;21.60;7.25;;;0.70;99.90;;;;;;4960874;28;20042;-83
2021/03/02 07:15:59;;;;;;;24.73;9.10;;;0.70;99.90;;;;;;4985914;28;20073;-82
2021/03/02 07:18:28;;;;;;;20.77;7.78;;;0.70;99.90;;;;;;4992112;28;20046;-82
2021/03/02 07:21:00;;;;;;;24.33;8.02;;;0.80;99.90;;;;;;4989324;28;20035;-82
2021/03/02 07:23:28;;;;;;;21.27;7.13;;;0.80;99.90;;;;;;4969265;28;20050;-83
2021/03/02 07:25:56;;;;;;;22.55;7.93;;;0.90;99.90;;;;;;4972972;28;20031;-82
2021/03/02 07:28:26;;;;;;;22.45;8.00;;;1.00;99.90;;;;;;4965942;28;20530;-82
2021/03/02 07:30:54;;;;;;;26.42;8.98;;;1.00;99.90;;;;;;4984155;28;20034;-83
2021/03/02 07:33:20;;;;;;;22.73;8.65;;;1.10;99.90;;;;;;4991583;28;20042;-82
2021/03/02 07:35:46;;;;;;;25.85;9.40;;;1.10;99.90;;;;;;4986581;28;20122;-83
2021/03/02 07:38:20;;;;;;;25.35;9.25;;;1.10;99.90;;;;;;4986599;28;20035;-82
2021/03/02 07:40:49;;;;;;;28.38;10.70;;;1.20;99.90;;;;;;4988295;28;20131;-82
2021/03/02 07:43:36;;;;;;;25.85;10.35;;;1.30;99.90;;;;;;4987621;28;20115;-82
2021/03/02 07:46:41;;;;;;;25.20;9.55;;;1.30;99.90;;;;;;4990205;28;20041;-82
2021/03/02 07:49:22;;;;;;;25.35;10.50;;;1.40;99.90;;;;;;4981749;28;20035;-82
2021/03/02 07:52:14;;;;;;;22.83;9.00;;;1.50;99.90;;;;;;4986263;28;20049;-83
2021/03/02 07:54:41;;;;;;;24.25;9.05;;;1.50;99.90;;;;;;4983816;28;20035;-83
2021/03/02 07:57:16;;;;;;;26.05;9.10;;;1.50;99.90;;;;;;4995151;28;20054;-82
2021/03/02 07:59:43;;;;;;;26.00;9.50;;;1.50;99.90;;;;;;4970824;28;20069;-82
2021/03/02 08:02:16;;;;;;;25.35;9.13;;;1.60;99.90;;;;;;4994906;28;20066;-83
2021/03/02 08:04:43;;;;;;;21.05;9.23;;;1.70;99.90;;;;;;4973666;28;20506;-83
2021/03/02 08:07:28;;;;;;;23.13;8.45;;;1.80;99.90;;;;;;4990103;28;20043;-83
2021/03/02 08:09:56;;;;;;;23.38;8.38;;;1.80;99.90;;;;;;4972609;28;20038;-83
2021/03/02 08:12:37;;;;;;;23.38;9.02;;;1.90;99.90;;;;;;4992738;28;20050;-83
2021/03/02 08:15:15;;;;;;;20.10;8.00;;;2.10;99.90;;;;;;4977040;28;20470;-83
2021/03/02 08:17:40;;;;;;;19.60;8.45;;;2.20;99.90;;;;;;4989294;28;20054;-83
2021/03/02 08:20:08;;;;;;;20.88;7.70;;;2.30;99.90;;;;;;4990277;28;20062;-83
2021/03/02 08:22:34;;;;;;;23.73;8.68;;;2.40;99.90;;;;;;4985605;28;20047;-83
2021/03/02 08:25:06;;;;;;;22.00;8.90;;;2.50;99.90;;;;;;4991953;28;20030;-84
2021/03/02 08:27:48;;;;;;;23.98;8.75;;;2.60;99.90;;;;;;4991665;28;20041;-83
2021/03/02 08:30:18;;;;;;;20.52;8.45;;;2.80;99.90;;;;;;4986575;28;20070;-84
2021/03/02 08:32:44;;;;;;;22.13;9.40;;;3.00;99.90;;;;;;4985801;28;20060;-83
2021/03/02 08:35:14;;;;;;;20.55;7.88;;;3.20;99.90;;;;;;4974207;28;20506;-84
2021/03/02 08:37:57;;;;;;;20.38;7.85;;;3.30;99.90;;;;;;4986349;28;20046;-84
2021/03/02 08:40:30;;;;;;;20.02;8.95;;;3.50;99.90;;;;;;4989151;28;20036;-83
2021/03/02 08:43:09;;;;;;;20.42;8.38;;;3.70;99.90;;;;;;4991951;28;20034;-84
2021/03/02 08:45:39;;;;;;;23.10;9.90;;;3.80;99.90;;;;;;4994773;28;20046;-84
2021/03/02 08:48:19;;;;;;;21.77;11.23;;;4.00;99.90;;;;;;4995970;28;20042;-84
2021/03/02 08:50:45;;;;;;;24.27;10.18;;;4.20;99.90;;;;;;4993607;28;20462;-84
2021/03/02 08:53:28;;;;;;;22.38;10.25;;;4.40;99.90;;;;;;4977148;28;20061;-84
2021/03/02 08:55:54;;;;;;;19.52;9.30;;;4.60;99.90;;;;;;4993139;28;20051;-84
2021/03/02 08:58:32;;;;;;;21.15;9.75;;;4.70;99.90;;;;;;4994837;28;20039;-84
2021/03/02 09:01:04;;;;;;;23.02;10.43;;;4.90;99.90;;;;;;4978876;28;20047;-84
2021/03/02 09:03:30;;;;;;;18.55;8.85;;;5.00;99.90;;;;;;4993895;28;20050;-85
2021/03/02 09:06:22;;;;;;;21.45;10.50;;;5.20;99.90;;;;;;4992939;28;20039;-85
2021/03/02 09:08:58;;;;;;;19.98;9.82;;;5.30;99.90;;;;;;4972299;28;20096;-85
2021/03/02 09:11:32;;;;;;;19.65;8.95;;;5.50;99.90;;;;;;4988877;28;20502;-84
2021/03/02 09:14:00;;;;;;;18.75;10.18;;;5.60;99.90;;;;;;4962235;28;20035;-85
2021/03/02 09:16:38;;;;;;;18.90;9.15;;;5.70;99.90;;;;;;4970558;28;20119;-84
2021/03/02 09:19:28;;;;;;;18.05;8.48;;;6.00;99.90;;;;;;4946679;28;20031;-85
2021/03/02 09:22:17;;;;;;;17.60;9.13;;;6.10;99.90;;;;;;4969042;28;20067;-84
2021/03/02 09:24:57;;;;;;;18.95;8.25;;;6.30;99.90;;;;;;4972290;28;20097;-85
2021/03/02 09:27:32;;;;;;;17.25;8.60;;;6.50;99.90;;;;;;4970203;28;20114;-84
2021/03/02 09:29:58;;;;;;;17.58;8.20;;;6.60;99.90;;;;;;4957139;29;20579;-84
2021/03/02 09:32:27;;;;;;;15.77;7.70;;;6.80;99.90;;;;;;4956993;28;20035;-84
2021/03/02 09:35:05;;;;;;;16.55;8.45;;;6.90;99.90;;;;;;4958542;28;20035;-84
2021/03/02 09:37:31;;;;;;;15.68;7.88;;;7.00;99.90;;;;;;4990258;28;20154;-84
2021/03/02 09:40:03;;;;;;;13.25;7.80;;;7.10;99.90;;;;;;4973176;28;20537;-84
2021/03/02 09:42:31;;;;;;;16.10;8.15;;;7.30;99.90;;;;;;4989007;28;20039;-84
2021/03/02 09:45:02;;;;;;;18.02;9.45;;;7.40;99.90;;;;;;4956095;28;20028;-85
2021/03/02 09:47:33;;;;;;;16.95;9.48;;;7.60;99.90;;;;;;4958944;28;20053;-84
2021/03/02 09:50:12;;;;;;;18.98;10.00;;;7.80;99.90;;;;;;4956619;28;20031;-84
2021/03/02 09:52:46;;;;;;;19.77;9.80;;;7.90;99.90;;;;;;4988477;28;20070;-84
2021/03/02 09:55:22;;;;;;;14.13;7.45;;;8.00;99.90;;;;;;4955736;29;20464;-85
2021/03/02 09:58:13;;;;;;;15.68;7.38;;;8.30;99.90;;;;;;4943668;28;20122;-85
2021/03/02 10:00:45;;;;;;;12.35;6.72;;;8.50;99.90;;;;;;4974361;28;20099;-85
2021/03/02 10:03:22;;;;;;;12.75;7.03;;;8.70;99.90;;;;;;4975192;28;20035;-85
2021/03/02 10:05:58;;;;;;;14.10;7.28;;;8.80;99.90;;;;;;4959143;28;20567;-85
2021/03/02 10:08:37;;;;;;;12.68;6.97;;;9.00;99.90;;;;;;4962538;28;20055;-85
2021/03/02 10:11:18;;;;;;;9.88;4.97;;;9.20;99.90;;;;;;4979964;28;20047;-86
2021/03/02 10:13:53;;;;;;;11.85;6.63;;;9.30;99.90;;;;;;4950573;29;20508;-85
2021/03/02 10:16:31;;;;;;;9.32;4.85;;;9.50;99.90;;;;;;4964836;29;20078;-84
2021/03/02 10:19:31;;;;;;;9.55;4.95;;;9.60;99.90;;;;;;4978615;28;20035;-85
2021/03/02 10:21:59;;;;;;;10.07;4.63;;;10.00;99.90;;;;;;4978629;28;20030;-85
2021/03/02 10:24:36;;;;;;;9.15;4.25;;;10.20;99.90;;;;;;4984621;28;20062;-85
2021/03/02 10:27:17;;;;;;;7.53;4.32;;;10.20;99.90;;;;;;4979597;28;20181;-85
2021/03/02 10:29:43;;;;;;;9.40;4.38;;;10.30;99.90;;;;;;4937149;28;20498;-85
2021/03/02 10:32:10;;;;;;;8.82;4.50;;;10.40;99.90;;;;;;4980330;28;20150;-85
2021/03/02 10:34:37;;;;;;;8.43;4.03;;;10.50;99.90;;;;;;4982848;28;20039;-85
2021/03/02 10:37:05;;;;;;;7.03;4.13;;;10.60;99.90;;;;;;4983909;28;20137;-86
2021/03/02 10:39:31;;;;;;;10.20;4.22;;;10.70;99.90;;;;;;4985138;28;20043;-85
2021/03/02 10:41:56;;;;;;;8.02;3.60;;;10.80;99.90;;;;;;4985327;28;20042;-86
2021/03/02 10:44:22;;;;;;;6.00;3.67;;;11.00;99.90;;;;;;4983303;28;20031;-85
2021/03/02 10:46:48;;;;;;;8.32;5.47;;;11.00;99.90;;;;;;4961241;28;20050;-86
2021/03/02 10:49:15;;;;;;;7.53;4.05;;;11.00;99.90;;;;;;4944179;29;20408;-86
2021/03/02 10:51:41;;;;;;;7.15;3.78;;;11.10;99.90;;;;;;4958296;28;20070;-85
2021/03/02 10:54:08;;;;;;;7.80;4.00;;;11.30;99.90;;;;;;4977128;28;20035;-85
2021/03/02 10:56:34;;;;;;;5.55;3.30;;;11.20;99.90;;;;;;4974206;28;20073;-85
2021/03/02 10:59:00;;;;;;;6.93;3.88;;;11.40;99.90;;;;;;4983708;28;20050;-86
2021/03/02 11:01:26;;;;;;;7.82;4.47;;;11.50;99.90;;;;;;4982105;28;20500;-85
2021/03/02 11:03:52;;;;;;;7.38;3.83;;;11.50;99.90;;;;;;4983229;28;20082;-85
2021/03/02 11:06:21;;;;;;;7.57;4.50;;;11.60;99.90;;;;;;4957689;28;20043;-86
2021/03/02 11:08:48;;;;;;;7.78;4.70;;;11.70;99.90;;;;;;4985009;28;20062;-85
2021/03/02 11:11:19;;;;;;;10.00;4.50;;;11.80;99.90;;;;;;4972722;28;20035;-86
2021/03/02 11:13:46;;;;;;;11.07;5.18;;;11.90;99.90;;;;;;4989141;28;20054;-85
2021/03/02 11:16:12;;;;;;;9.27;4.68;;;12.20;99.90;;;;;;4973023;28;20055;-85
2021/03/02 11:18:38;;;;;;;7.47;3.72;;;12.10;99.90;;;;;;4993138;28;20039;-85
2021/03/02 11:21:04;;;;;;;6.15;2.90;;;12.20;99.90;;;;;;4987900;28;20031;-86
2021/03/02 11:23:29;;;;;;;6.95;4.05;;;12.30;99.90;;;;;;4960842;28;20070;-86
2021/03/02 11:25:55;;;;;;;8.40;3.53;;;12.30;99.90;;;;;;4983218;28;20043;-85
2021/03/02 11:28:21;;;;;;;6.25;3.40;;;12.30;99.90;;;;;;4992040;28;20037;-85
2021/03/02 11:30:47;;;;;;;6.90;3.00;;;12.30;99.90;;;;;;4990545;28;20043;-85
2021/03/02 11:33:14;;;;;;;7.05;4.32;;;12.50;99.90;;;;;;4985744;28;20041;-85
2021/03/02 11:35:41;;;;;;;9.00;4.88;;;12.30;99.90;;;;;;4989943;28;20073;-86
2021/03/02 11:38:07;;;;;;;8.18;4.60;;;12.50;99.90;;;;;;4955059;28;20047;-85
2021/03/02 11:40:34;;;;;;;9.57;5.18;;;12.50;99.90;;;;;;4955551;28;20069;-86
2021/03/02 11:42:59;;;;;;;9.23;4.68;;;12.70;99.90;;;;;;4976788;28;20071;-86
2021/03/02 11:45:29;;;;;;;8.45;4.95;;;12.70;99.90;;;;;;4987532;28;20034;-86
2021/03/02 11:47:56;;;;;;;9.40;5.00;;;12.70;99.90;;;;;;4990106;28;20089;-86
2021/03/02 11:50:22;;;;;;;9.35;5.22;;;12.70;99.90;;;;;;4990378;28;20118;-85
2021/03/02 11:52:49;;;;;;;8.73;4.57;;;12.80;99.90;;;;;;4984291;28;20031;-86
2021/03/02 11:55:16;;;;;;;6.90;3.13;;;12.90;99.90;;;;;;4973855;28;20050;-86
2021/03/02 11:57:43;;;;;;;8.95;3.88;;;13.00;99.90;;;;;;4987022;28;20051;-87
2021/03/02 12:00:20;;;;;;;7.60;3.10;;;13.00;99.90;;;;;;4990345;28;20034;-85
2021/03/02 12:02:46;;;;;;;6.60;3.80;;;13.00;99.90;;;;;;4986908;28;20494;-86
2021/03/02 12:05:13;;;;;;;8.20;4.53;;;13.00;99.90;;;;;;4955803;28;20035;-86
2021/03/02 12:07:40;;;;;;;9.77;4.43;;;13.10;99.90;;;;;;4981903;28;20538;-86
2021/03/02 12:10:09;;;;;;;7.60;4.30;;;13.20;99.90;;;;;;4954346;28;20460;-86
2021/03/02 12:12:38;;;;;;;8.47;4.53;;;13.30;99.90;;;;;;4969863;28;20047;-86
2021/03/02 12:15:05;;;;;;;10.38;5.07;;;13.30;99.90;;;;;;4979075;28;20046;-86
2021/03/02 12:17:31;;;;;;;9.05;5.13;;;13.30;99.90;;;;;;4973303;28;20087;-86
2021/03/02 12:19:57;;;;;;;8.18;4.20;;;13.30;99.90;;;;;;4985707;28;20063;-86
2021/03/02 12:22:23;;;;;;;9.43;4.47;;;13.30;99.90;;;;;;4970565;28;20535;-86
2021/03/02 12:24:49;;;;;;;8.18;4.22;;;13.40;99.90;;;;;;4975539;28;20038;-86
2021/03/02 12:27:15;;;;;;;6.22;3.60;;;13.60;99.90;;;;;;4958275;29;20039;-86
2021/03/02 12:29:42;;;;;;;7.65;4.03;;;13.60;99.90;;;;;;4974430;28;20042;-86
2021/03/02 12:32:08;;;;;;;9.43;4.43;;;13.60;99.90;;;;;;4957870;28;20066;-86
2021/03/02 12:34:33;;;;;;;8.52;4.72;;;13.70;99.90;;;;;;4973934;28;20050;-86
2021/03/02 12:36:59;;;;;;;7.45;4.15;;;13.70;99.90;;;;;;4953823;29;20051;-86
2021/03/02 12:39:25;;;;;;;6.43;3.92;;;13.80;99.90;;;;;;4972744;28;20065;-87
2021/03/02 12:41:50;;;;;;;5.97;3.75;;;13.80;99.90;;;;;;4962757;28;20039;-88
2021/03/02 12:44:16;;;;;;;7.15;4.07;;;13.70;99.90;;;;;;4955207;28;20035;-86
2021/03/02 12:46:42;;;;;;;8.20;4.45;;;13.50;99.90;;;;;;4971618;28;20038;-86
2021/03/02 12:49:07;;;;;;;8.80;4.97;;;13.60;99.90;;;;;;4966029;29;20035;-86
2021/03/02 12:51:33;;;;;;;9.20;4.63;;;13.60;99.90;;;;;;4987429;28;20480;-86
2021/03/02 12:53:59;;;;;;;7.93;4.35;;;13.60;99.90;;;;;;4950243;29;20027;-87
2021/03/02 12:56:25;;;;;;;7.30;4.78;;;13.70;99.90;;;;;;4982928;28;20047;-87
2021/03/02 12:58:50;;;;;;;7.88;4.82;;;13.80;99.90;;;;;;4978464;28;20043;-87